地図

経路データ

SID SEASON NUMBER BASIN SUBBASIN NAME ISO_TIME NATURE LAT LON WMO_WIND WMO_PRES WMO_AGENCY TRACK_TYPE DIST2LAND LANDFALL IFLAG USA_AGENCY USA_ATCF_ID USA_LAT USA_LON USA_RECORD USA_STATUS USA_WIND USA_PRES USA_SSHS USA_R34_NE USA_R34_SE USA_R34_SW USA_R34_NW USA_R50_NE USA_R50_SE USA_R50_SW USA_R50_NW USA_R64_NE USA_R64_SE USA_R64_SW USA_R64_NW USA_POCI USA_ROCI USA_RMW USA_EYE TOKYO_LAT TOKYO_LON TOKYO_GRADE TOKYO_WIND TOKYO_PRES TOKYO_R50_DIR TOKYO_R50_LONG TOKYO_R50_SHORT TOKYO_R30_DIR TOKYO_R30_LONG TOKYO_R30_SHORT TOKYO_LAND CMA_LAT CMA_LON CMA_CAT CMA_WIND CMA_PRES HKO_LAT HKO_LON HKO_CAT HKO_WIND HKO_PRES NEWDELHI_LAT NEWDELHI_LON NEWDELHI_GRADE NEWDELHI_WIND NEWDELHI_PRES NEWDELHI_CI NEWDELHI_DP NEWDELHI_POCI REUNION_LAT REUNION_LON REUNION_TYPE REUNION_WIND REUNION_PRES REUNION_TNUM REUNION_CI REUNION_RMW REUNION_R34_NE REUNION_R34_SE REUNION_R34_SW REUNION_R34_NW REUNION_R50_NE REUNION_R50_SE REUNION_R50_SW REUNION_R50_NW REUNION_R64_NE REUNION_R64_SE REUNION_R64_SW REUNION_R64_NW BOM_LAT BOM_LON BOM_TYPE BOM_WIND BOM_PRES BOM_TNUM BOM_CI BOM_RMW BOM_R34_NE BOM_R34_SE BOM_R34_SW BOM_R34_NW BOM_R50_NE BOM_R50_SE BOM_R50_SW BOM_R50_NW BOM_R64_NE BOM_R64_SE BOM_R64_SW BOM_R64_NW BOM_ROCI BOM_POCI BOM_EYE BOM_POS_METHOD BOM_PRES_METHOD NADI_LAT NADI_LON NADI_CAT NADI_WIND NADI_PRES WELLINGTON_LAT WELLINGTON_LON WELLINGTON_WIND WELLINGTON_PRES DS824_LAT DS824_LON DS824_STAGE DS824_WIND DS824_PRES TD9636_LAT TD9636_LON TD9636_STAGE TD9636_WIND TD9636_PRES TD9635_LAT TD9635_LON TD9635_WIND TD9635_PRES TD9635_ROCI NEUMANN_LAT NEUMANN_LON NEUMANN_CLASS NEUMANN_WIND NEUMANN_PRES MLC_LAT MLC_LON MLC_CLASS MLC_WIND MLC_PRES USA_GUST BOM_GUST BOM_GUST_PER REUNION_GUST REUNION_GUST_PER USA_SEAHGT USA_SEARAD_NE USA_SEARAD_SE USA_SEARAD_SW USA_SEARAD_NW STORM_SPEED STORM_DIR
2003283N26131 2003 85 WP MM NOT_NAMED 2003-10-10 00:00:00 TS 25.7000 130.700 main 591 580 O_____________ jtwc_wp WP192003 25.7000 130.700 TD 25 1002 -1 3 52
2003283N26131 2003 85 WP MM NOT_NAMED 2003-10-10 03:00:00 TS 25.8000 130.847 main 580 569 P_____________ WP192003 25.8000 130.847 TD 25 1002 -1 3 54
2003283N26131 2003 85 WP MM NOT_NAMED 2003-10-10 06:00:00 TS 25.9000 131.000 main 570 559 O_____________ jtwc_wp WP192003 25.9000 131.000 TD 25 1002 -1 4 53
2003283N26131 2003 85 WP MM NOT_NAMED 2003-10-10 09:00:00 TS 26.0125 131.158 main 560 539 P_____________ WP192003 26.0125 131.158 TD 25 1002 -1 4 42
2003283N26131 2003 85 WP MM NOT_NAMED 2003-10-10 12:00:00 TS 26.2000 131.300 main 539 506 O_____________ jtwc_wp WP192003 26.2000 131.300 TD 25 1002 -1 6 28
2003283N26131 2003 85 WP MM NOT_NAMED 2003-10-10 15:00:00 TS 26.5125 131.452 main 508 464 P_____________ WP192003 26.5125 131.452 TD 27 1001 -1 7 14
2003283N26131 2003 85 WP MM NOT_NAMED 2003-10-10 18:00:00 TS 26.9000 131.500 main 464 418 O_____________ jtwc_wp WP192003 26.9000 131.500 TD 30 1000 -1 1008 160 60 8 354
2003283N26131 2003 85 WP MM NOT_NAMED 2003-10-10 21:00:00 TS 27.3000 131.360 main 418 370 P_____________ WP192003 27.3000 131.360 TD 30 1000 -1 1008 160 60 9 336
2003283N26131 2003 85 WP MM NOT_NAMED 2003-10-11 00:00:00 TS 27.7000 131.100 main 370 334 O_____________ jtwc_wp WP192003 27.7000 131.100 TD 30 1000 -1 1008 160 60 9 328
2003283N26131 2003 85 WP MM NOT_NAMED 2003-10-11 03:00:00 TS 28.0575 130.822 main 323 290 P_____________ WP192003 28.0575 130.822 TD 27 1001 -1 9 323
2003283N26131 2003 85 WP MM NOT_NAMED 2003-10-11 06:00:00 TS 28.4000 130.500 main 290 261 O_____________ jtwc_wp WP192003 28.4000 130.500 TD 25 1002 -1 9 319
2003283N26131 2003 85 WP MM NOT_NAMED 2003-10-11 09:00:00 TS 28.7652 130.120 main 252 228 P_____________ WP192003 28.7652 130.120 TD 27 1001 -1 9 319
2003283N26131 2003 85 WP MM NOT_NAMED 2003-10-11 12:00:00 TS 29.1000 129.800 main 228 212 O_____________ jtwc_wp WP192003 29.1000 129.800 TD 30 1000 -1 7 324
2003283N26131 2003 85 WP MM NOT_NAMED 2003-10-11 15:00:00 TS 29.3498 129.632 main 217 187 P_____________ WP192003 29.3498 129.632 TD 30 1000 -1 5 341
2003283N26131 2003 85 WP MM NOT_NAMED 2003-10-11 18:00:00 TS 29.6000 129.600 main 187 152 O_____________ jtwc_wp WP192003 29.6000 129.600 TD 30 1000 -1 6 0
2003283N26131 2003 85 WP MM NOT_NAMED 2003-10-11 21:00:00 TS 29.9275 129.662 main 152 107 P_____________ WP192003 29.9275 129.662 TD 30 1000 -1 7 14
2003283N26131 2003 85 WP MM NOT_NAMED 2003-10-12 00:00:00 TS 30.3000 129.800 main 107 62 O_____________ jtwc_wp WP192003 30.3000 129.800 TD 30 1000 -1 1008 120 50 8 13
2003283N26131 2003 85 WP MM NOT_NAMED 2003-10-12 03:00:00 TS 30.6769 129.861 main 62 14 P_____________ WP192003 30.6769 129.861 TD 30 1000 -1 1008 120 37 8 18
2003283N26131 2003 85 WP MM NOT_NAMED 2003-10-12 06:00:00 TS 31.1000 130.100 main 14 0 O_____________ jtwc_wp WP192003 31.1000 130.100 TD 30 1000 -1 1008 120 25 12 37
2003283N26131 2003 85 WP MM NOT_NAMED 2003-10-12 09:00:00 TS 31.5922 130.672 main 9 0 P_____________ WP192003 31.5922 130.672 TD 30 1000 -1 1008 120 25 16 50
2003283N26131 2003 85 WP MM NOT_NAMED 2003-10-12 12:00:00 TS 32.1000 131.500 main 0 0 O_____________ jtwc_wp WP192003 32.1000 131.500 TD 30 1000 -1 1008 120 25 18 57
2003283N26131 2003 85 WP MM NOT_NAMED 2003-10-12 15:00:00 TS 32.5496 132.434 main 38 0 P_____________ WP192003 32.5496 132.434 TD 30 1000 -1 1008 120 35 19 62
2003283N26131 2003 85 WP MM NOT_NAMED 2003-10-12 18:00:00 TS 33.0000 133.500 main 35 0 O_____________ jtwc_wp WP192003 33.0000 133.500 TD 30 1000 -1 1008 120 45 21 63
2003283N26131 2003 85 WP MM NOT_NAMED 2003-10-12 21:00:00 TS 33.4896 134.632 main 24 0 P_____________ WP192003 33.4896 134.632 TD 30 1000 -1 1008 120 45 22 62
2003283N26131 2003 85 WP MM NOT_NAMED 2003-10-13 00:00:00 TS 34.0000 135.800 main 0 O_____________ jtwc_wp WP192003 34.0000 135.800 TD 30 1000 -1 1008 120 45 22 62

デジタル台風データ・検索

IBTrACS Databaseについて

本データベースは、米国NOAAが公開する1842年以降の世界の熱帯低気圧のベストトラックデータアーカイブInternational Best Track Archive for Climate Stewardship (IBTrACS)を、ウェブで閲覧しやすい形式に変換したものです。

最終更新日:2021-11-26